sensor_id;sensor_type;location;lat;lon;timestamp;P1;durP1;ratioP1;P2;durP2;ratioP2
18042;SDS011;9146;48.074;11.968;2023-05-23T00:01:59;10.07;;;9.07;;
18042;SDS011;9146;48.074;11.968;2023-05-23T00:04:25;10.03;;;9.03;;
18042;SDS011;9146;48.074;11.968;2023-05-23T00:06:52;10.43;;;9.20;;
18042;SDS011;9146;48.074;11.968;2023-05-23T00:09:19;10.57;;;9.47;;
18042;SDS011;9146;48.074;11.968;2023-05-23T00:11:46;14.33;;;9.83;;
18042;SDS011;9146;48.074;11.968;2023-05-23T00:14:13;11.10;;;10.00;;
18042;SDS011;9146;48.074;11.968;2023-05-23T00:16:41;10.40;;;8.50;;
18042;SDS011;9146;48.074;11.968;2023-05-23T00:19:10;10.67;;;9.67;;
18042;SDS011;9146;48.074;11.968;2023-05-23T00:21:39;11.40;;;9.30;;
18042;SDS011;9146;48.074;11.968;2023-05-23T00:24:05;11.97;;;10.00;;
18042;SDS011;9146;48.074;11.968;2023-05-23T00:26:34;9.87;;;8.80;;
18042;SDS011;9146;48.074;11.968;2023-05-23T00:29:01;10.60;;;9.00;;
18042;SDS011;9146;48.074;11.968;2023-05-23T00:31:28;16.10;;;9.33;;
18042;SDS011;9146;48.074;11.968;2023-05-23T00:33:55;10.30;;;9.30;;
18042;SDS011;9146;48.074;11.968;2023-05-23T00:36:23;11.17;;;9.70;;
18042;SDS011;9146;48.074;11.968;2023-05-23T00:38:50;11.90;;;9.73;;
18042;SDS011;9146;48.074;11.968;2023-05-23T00:41:18;10.17;;;9.17;;
18042;SDS011;9146;48.074;11.968;2023-05-23T00:43:45;11.77;;;9.70;;
18042;SDS011;9146;48.074;11.968;2023-05-23T00:46:12;11.87;;;9.30;;
18042;SDS011;9146;48.074;11.968;2023-05-23T00:48:39;11.73;;;9.23;;
18042;SDS011;9146;48.074;11.968;2023-05-23T00:51:06;10.73;;;9.30;;
18042;SDS011;9146;48.074;11.968;2023-05-23T00:53:35;11.03;;;8.57;;
18042;SDS011;9146;48.074;11.968;2023-05-23T00:56:02;10.10;;;8.73;;
18042;SDS011;9146;48.074;11.968;2023-05-23T00:58:29;11.73;;;9.07;;
18042;SDS011;9146;48.074;11.968;2023-05-23T01:00:56;10.37;;;9.20;;
18042;SDS011;9146;48.074;11.968;2023-05-23T01:03:24;10.60;;;8.87;;
18042;SDS011;9146;48.074;11.968;2023-05-23T01:05:53;9.20;;;8.30;;
18042;SDS011;9146;48.074;11.968;2023-05-23T01:08:20;9.30;;;8.37;;
18042;SDS011;9146;48.074;11.968;2023-05-23T01:10:48;11.00;;;9.57;;
18042;SDS011;9146;48.074;11.968;2023-05-23T01:13:23;9.63;;;8.63;;
18042;SDS011;9146;48.074;11.968;2023-05-23T01:15:57;13.20;;;9.83;;
18042;SDS011;9146;48.074;11.968;2023-05-23T01:18:28;12.00;;;9.30;;
18042;SDS011;9146;48.074;11.968;2023-05-23T01:21:02;9.77;;;8.77;;
18042;SDS011;9146;48.074;11.968;2023-05-23T01:23:39;12.60;;;9.37;;
18042;SDS011;9146;48.074;11.968;2023-05-23T01:26:40;11.80;;;9.70;;
18042;SDS011;9146;48.074;11.968;2023-05-23T01:29:25;10.93;;;9.73;;
18042;SDS011;9146;48.074;11.968;2023-05-23T01:31:55;9.90;;;8.90;;
18042;SDS011;9146;48.074;11.968;2023-05-23T01:34:24;12.23;;;9.97;;
18042;SDS011;9146;48.074;11.968;2023-05-23T01:36:53;10.50;;;9.40;;
18042;SDS011;9146;48.074;11.968;2023-05-23T01:39:20;13.83;;;8.93;;
18042;SDS011;9146;48.074;11.968;2023-05-23T01:41:47;11.20;;;9.97;;
18042;SDS011;9146;48.074;11.968;2023-05-23T01:44:15;10.93;;;9.80;;
18042;SDS011;9146;48.074;11.968;2023-05-23T01:46:43;11.63;;;10.43;;
18042;SDS011;9146;48.074;11.968;2023-05-23T01:49:12;11.67;;;10.40;;
18042;SDS011;9146;48.074;11.968;2023-05-23T01:51:40;11.60;;;10.40;;
18042;SDS011;9146;48.074;11.968;2023-05-23T01:54:08;11.07;;;9.97;;
18042;SDS011;9146;48.074;11.968;2023-05-23T01:56:35;11.87;;;10.63;;
18042;SDS011;9146;48.074;11.968;2023-05-23T01:59:02;10.70;;;9.60;;
18042;SDS011;9146;48.074;11.968;2023-05-23T02:01:29;11.83;;;10.00;;
18042;SDS011;9146;48.074;11.968;2023-05-23T02:03:57;10.97;;;9.77;;
18042;SDS011;9146;48.074;11.968;2023-05-23T02:06:24;12.10;;;10.80;;
18042;SDS011;9146;48.074;11.968;2023-05-23T02:08:51;11.03;;;9.43;;
18042;SDS011;9146;48.074;11.968;2023-05-23T02:11:18;10.33;;;9.30;;
18042;SDS011;9146;48.074;11.968;2023-05-23T02:13:46;10.80;;;9.57;;
18042;SDS011;9146;48.074;11.968;2023-05-23T02:16:13;11.00;;;9.37;;
18042;SDS011;9146;48.074;11.968;2023-05-23T02:18:40;15.60;;;10.27;;
18042;SDS011;9146;48.074;11.968;2023-05-23T02:21:11;11.97;;;10.50;;
18042;SDS011;9146;48.074;11.968;2023-05-23T02:23:38;12.07;;;9.33;;
18042;SDS011;9146;48.074;11.968;2023-05-23T02:26:05;11.33;;;10.17;;
18042;SDS011;9146;48.074;11.968;2023-05-23T02:28:31;13.23;;;10.77;;
18042;SDS011;9146;48.074;11.968;2023-05-23T02:30:58;10.70;;;9.47;;
18042;SDS011;9146;48.074;11.968;2023-05-23T02:33:25;11.60;;;9.90;;
18042;SDS011;9146;48.074;11.968;2023-05-23T02:35:53;12.23;;;10.30;;
18042;SDS011;9146;48.074;11.968;2023-05-23T02:38:21;11.33;;;10.13;;
18042;SDS011;9146;48.074;11.968;2023-05-23T02:40:48;12.63;;;10.13;;
18042;SDS011;9146;48.074;11.968;2023-05-23T02:43:16;12.50;;;10.30;;
18042;SDS011;9146;48.074;11.968;2023-05-23T02:45:43;12.57;;;11.17;;
18042;SDS011;9146;48.074;11.968;2023-05-23T02:48:10;12.13;;;10.90;;
18042;SDS011;9146;48.074;11.968;2023-05-23T02:50:36;12.30;;;10.83;;
18042;SDS011;9146;48.074;11.968;2023-05-23T02:53:03;13.97;;;11.87;;
18042;SDS011;9146;48.074;11.968;2023-05-23T02:55:34;15.27;;;12.30;;
18042;SDS011;9146;48.074;11.968;2023-05-23T02:58:02;14.40;;;10.73;;
18042;SDS011;9146;48.074;11.968;2023-05-23T03:00:29;17.50;;;13.00;;
18042;SDS011;9146;48.074;11.968;2023-05-23T03:02:56;21.10;;;15.57;;
18042;SDS011;9146;48.074;11.968;2023-05-23T03:05:23;18.43;;;14.50;;
18042;SDS011;9146;48.074;11.968;2023-05-23T03:07:50;19.90;;;16.70;;
18042;SDS011;9146;48.074;11.968;2023-05-23T03:10:18;25.77;;;17.87;;
18042;SDS011;9146;48.074;11.968;2023-05-23T03:12:46;25.03;;;19.00;;
18042;SDS011;9146;48.074;11.968;2023-05-23T03:15:13;22.33;;;18.07;;
18042;SDS011;9146;48.074;11.968;2023-05-23T03:17:40;26.53;;;18.37;;
18042;SDS011;9146;48.074;11.968;2023-05-23T03:20:07;26.57;;;19.57;;
18042;SDS011;9146;48.074;11.968;2023-05-23T03:22:35;33.17;;;22.00;;
18042;SDS011;9146;48.074;11.968;2023-05-23T03:25:02;29.47;;;22.07;;
18042;SDS011;9146;48.074;11.968;2023-05-23T03:27:30;29.10;;;19.97;;
18042;SDS011;9146;48.074;11.968;2023-05-23T03:29:58;27.37;;;21.27;;
18042;SDS011;9146;48.074;11.968;2023-05-23T03:32:25;28.97;;;20.87;;
18042;SDS011;9146;48.074;11.968;2023-05-23T03:34:52;28.53;;;21.87;;
18042;SDS011;9146;48.074;11.968;2023-05-23T03:37:19;31.77;;;22.17;;
18042;SDS011;9146;48.074;11.968;2023-05-23T03:39:46;27.67;;;20.90;;
18042;SDS011;9146;48.074;11.968;2023-05-23T03:42:13;29.10;;;21.47;;
18042;SDS011;9146;48.074;11.968;2023-05-23T03:44:39;30.87;;;21.33;;
18042;SDS011;9146;48.074;11.968;2023-05-23T03:47:08;31.83;;;21.77;;
18042;SDS011;9146;48.074;11.968;2023-05-23T03:49:35;30.10;;;21.97;;
18042;SDS011;9146;48.074;11.968;2023-05-23T03:52:02;30.20;;;21.17;;
18042;SDS011;9146;48.074;11.968;2023-05-23T03:54:29;34.00;;;22.00;;
18042;SDS011;9146;48.074;11.968;2023-05-23T03:56:56;38.60;;;24.60;;
18042;SDS011;9146;48.074;11.968;2023-05-23T03:59:23;32.00;;;21.40;;
18042;SDS011;9146;48.074;11.968;2023-05-23T04:01:49;38.20;;;21.67;;
18042;SDS011;9146;48.074;11.968;2023-05-23T04:04:19;31.40;;;20.87;;
18042;SDS011;9146;48.074;11.968;2023-05-23T04:06:46;29.27;;;19.57;;
18042;SDS011;9146;48.074;11.968;2023-05-23T04:09:13;37.60;;;24.47;;
18042;SDS011;9146;48.074;11.968;2023-05-23T04:11:40;37.57;;;24.40;;
18042;SDS011;9146;48.074;11.968;2023-05-23T04:14:06;38.77;;;24.23;;
18042;SDS011;9146;48.074;11.968;2023-05-23T04:16:34;38.13;;;24.70;;
18042;SDS011;9146;48.074;11.968;2023-05-23T04:19:02;37.87;;;24.03;;
18042;SDS011;9146;48.074;11.968;2023-05-23T04:21:31;40.90;;;25.20;;
18042;SDS011;9146;48.074;11.968;2023-05-23T04:23:58;38.63;;;25.10;;
18042;SDS011;9146;48.074;11.968;2023-05-23T04:26:27;45.43;;;24.40;;
18042;SDS011;9146;48.074;11.968;2023-05-23T04:28:54;46.43;;;27.77;;
18042;SDS011;9146;48.074;11.968;2023-05-23T04:31:21;42.80;;;25.70;;
18042;SDS011;9146;48.074;11.968;2023-05-23T04:33:48;40.07;;;26.27;;
18042;SDS011;9146;48.074;11.968;2023-05-23T04:36:14;54.10;;;29.43;;
18042;SDS011;9146;48.074;11.968;2023-05-23T04:38:43;53.57;;;30.00;;
18042;SDS011;9146;48.074;11.968;2023-05-23T04:41:10;39.27;;;25.50;;
18042;SDS011;9146;48.074;11.968;2023-05-23T04:43:40;42.90;;;26.67;;
18042;SDS011;9146;48.074;11.968;2023-05-23T04:46:08;39.60;;;27.33;;
18042;SDS011;9146;48.074;11.968;2023-05-23T04:48:35;56.13;;;31.37;;
18042;SDS011;9146;48.074;11.968;2023-05-23T04:51:02;40.23;;;27.47;;
18042;SDS011;9146;48.074;11.968;2023-05-23T04:53:32;44.10;;;27.17;;
18042;SDS011;9146;48.074;11.968;2023-05-23T04:56:00;36.27;;;25.60;;
18042;SDS011;9146;48.074;11.968;2023-05-23T04:58:27;43.77;;;26.17;;
18042;SDS011;9146;48.074;11.968;2023-05-23T05:00:55;42.60;;;26.90;;
18042;SDS011;9146;48.074;11.968;2023-05-23T05:03:22;41.70;;;26.90;;
18042;SDS011;9146;48.074;11.968;2023-05-23T05:05:50;37.17;;;26.13;;
18042;SDS011;9146;48.074;11.968;2023-05-23T05:08:17;31.07;;;23.40;;
18042;SDS011;9146;48.074;11.968;2023-05-23T05:10:44;35.20;;;24.40;;
18042;SDS011;9146;48.074;11.968;2023-05-23T05:13:13;34.03;;;23.27;;
18042;SDS011;9146;48.074;11.968;2023-05-23T05:15:39;37.10;;;24.60;;
18042;SDS011;9146;48.074;11.968;2023-05-23T05:18:06;32.63;;;23.50;;
18042;SDS011;9146;48.074;11.968;2023-05-23T05:20:33;29.00;;;22.83;;
18042;SDS011;9146;48.074;11.968;2023-05-23T05:23:00;28.53;;;23.00;;
18042;SDS011;9146;48.074;11.968;2023-05-23T05:25:27;26.63;;;21.33;;
18042;SDS011;9146;48.074;11.968;2023-05-23T05:27:56;32.13;;;22.87;;
18042;SDS011;9146;48.074;11.968;2023-05-23T05:30:24;26.40;;;21.23;;
18042;SDS011;9146;48.074;11.968;2023-05-23T05:32:51;26.63;;;21.60;;
18042;SDS011;9146;48.074;11.968;2023-05-23T05:35:18;24.03;;;19.40;;
18042;SDS011;9146;48.074;11.968;2023-05-23T05:37:45;26.93;;;20.83;;
18042;SDS011;9146;48.074;11.968;2023-05-23T05:40:12;23.70;;;19.87;;
18042;SDS011;9146;48.074;11.968;2023-05-23T05:42:39;27.17;;;21.60;;
18042;SDS011;9146;48.074;11.968;2023-05-23T05:45:06;23.57;;;19.57;;
18042;SDS011;9146;48.074;11.968;2023-05-23T05:47:34;25.83;;;20.97;;
18042;SDS011;9146;48.074;11.968;2023-05-23T05:50:03;28.13;;;21.40;;
18042;SDS011;9146;48.074;11.968;2023-05-23T05:52:30;22.53;;;18.83;;
18042;SDS011;9146;48.074;11.968;2023-05-23T05:54:58;27.17;;;18.90;;
18042;SDS011;9146;48.074;11.968;2023-05-23T05:57:25;23.10;;;19.13;;
18042;SDS011;9146;48.074;11.968;2023-05-23T05:59:52;21.23;;;17.90;;
18042;SDS011;9146;48.074;11.968;2023-05-23T06:02:19;22.10;;;18.50;;
18042;SDS011;9146;48.074;11.968;2023-05-23T06:04:47;24.03;;;19.60;;
18042;SDS011;9146;48.074;11.968;2023-05-23T06:07:14;22.10;;;17.77;;
18042;SDS011;9146;48.074;11.968;2023-05-23T06:09:41;23.90;;;19.10;;
18042;SDS011;9146;48.074;11.968;2023-05-23T06:12:08;25.40;;;19.13;;
18042;SDS011;9146;48.074;11.968;2023-05-23T06:14:35;25.33;;;20.00;;
18042;SDS011;9146;48.074;11.968;2023-05-23T06:17:02;26.50;;;20.77;;
18042;SDS011;9146;48.074;11.968;2023-05-23T06:19:29;22.03;;;18.77;;
18042;SDS011;9146;48.074;11.968;2023-05-23T06:21:58;22.67;;;17.67;;
18042;SDS011;9146;48.074;11.968;2023-05-23T06:24:25;20.53;;;18.27;;
18042;SDS011;9146;48.074;11.968;2023-05-23T06:26:52;25.87;;;20.50;;
18042;SDS011;9146;48.074;11.968;2023-05-23T06:29:18;26.93;;;20.30;;
18042;SDS011;9146;48.074;11.968;2023-05-23T06:31:45;21.80;;;17.30;;
18042;SDS011;9146;48.074;11.968;2023-05-23T06:34:12;21.97;;;19.47;;
18042;SDS011;9146;48.074;11.968;2023-05-23T06:36:39;19.40;;;17.27;;
18042;SDS011;9146;48.074;11.968;2023-05-23T06:39:08;24.53;;;18.50;;
18042;SDS011;9146;48.074;11.968;2023-05-23T06:41:35;20.87;;;18.20;;
18042;SDS011;9146;48.074;11.968;2023-05-23T06:44:02;24.50;;;17.47;;
18042;SDS011;9146;48.074;11.968;2023-05-23T06:46:28;21.80;;;16.77;;
18042;SDS011;9146;48.074;11.968;2023-05-23T06:48:56;20.60;;;17.43;;
18042;SDS011;9146;48.074;11.968;2023-05-23T06:51:23;19.23;;;16.83;;
18042;SDS011;9146;48.074;11.968;2023-05-23T06:53:49;19.93;;;16.90;;
18042;SDS011;9146;48.074;11.968;2023-05-23T06:56:18;20.67;;;16.90;;
18042;SDS011;9146;48.074;11.968;2023-05-23T06:58:44;19.30;;;16.37;;
18042;SDS011;9146;48.074;11.968;2023-05-23T07:01:11;26.67;;;17.60;;
18042;SDS011;9146;48.074;11.968;2023-05-23T07:03:38;20.93;;;16.43;;
18042;SDS011;9146;48.074;11.968;2023-05-23T07:06:05;27.10;;;18.93;;
18042;SDS011;9146;48.074;11.968;2023-05-23T07:08:32;23.53;;;17.13;;
18042;SDS011;9146;48.074;11.968;2023-05-23T07:10:59;19.10;;;16.27;;
18042;SDS011;9146;48.074;11.968;2023-05-23T07:13:28;21.10;;;16.27;;
18042;SDS011;9146;48.074;11.968;2023-05-23T07:15:55;17.30;;;14.67;;
18042;SDS011;9146;48.074;11.968;2023-05-23T07:18:22;20.10;;;15.93;;
18042;SDS011;9146;48.074;11.968;2023-05-23T07:20:49;17.90;;;15.70;;
18042;SDS011;9146;48.074;11.968;2023-05-23T07:23:16;21.13;;;16.20;;
18042;SDS011;9146;48.074;11.968;2023-05-23T07:25:43;17.60;;;14.43;;
18042;SDS011;9146;48.074;11.968;2023-05-23T07:28:11;18.40;;;16.10;;
18042;SDS011;9146;48.074;11.968;2023-05-23T07:30:39;18.43;;;16.10;;
18042;SDS011;9146;48.074;11.968;2023-05-23T07:33:07;19.30;;;15.97;;
18042;SDS011;9146;48.074;11.968;2023-05-23T07:35:33;19.27;;;15.90;;
18042;SDS011;9146;48.074;11.968;2023-05-23T07:38:00;19.47;;;15.23;;
18042;SDS011;9146;48.074;11.968;2023-05-23T07:40:28;16.10;;;13.90;;
18042;SDS011;9146;48.074;11.968;2023-05-23T07:42:55;17.20;;;14.63;;
18042;SDS011;9146;48.074;11.968;2023-05-23T07:45:22;20.60;;;14.57;;
18042;SDS011;9146;48.074;11.968;2023-05-23T07:47:50;17.63;;;14.87;;
18042;SDS011;9146;48.074;11.968;2023-05-23T07:50:17;17.37;;;14.70;;
18042;SDS011;9146;48.074;11.968;2023-05-23T07:52:45;17.80;;;15.17;;
18042;SDS011;9146;48.074;11.968;2023-05-23T07:55:12;17.73;;;12.07;;
18042;SDS011;9146;48.074;11.968;2023-05-23T07:57:39;16.80;;;14.23;;
18042;SDS011;9146;48.074;11.968;2023-05-23T08:00:06;19.00;;;16.03;;
18042;SDS011;9146;48.074;11.968;2023-05-23T08:02:34;18.63;;;15.27;;
18042;SDS011;9146;48.074;11.968;2023-05-23T08:05:02;21.37;;;15.50;;
18042;SDS011;9146;48.074;11.968;2023-05-23T08:07:29;21.93;;;16.40;;
18042;SDS011;9146;48.074;11.968;2023-05-23T08:09:56;17.60;;;15.60;;
18042;SDS011;9146;48.074;11.968;2023-05-23T08:12:23;21.60;;;17.60;;
18042;SDS011;9146;48.074;11.968;2023-05-23T08:14:50;18.30;;;16.30;;
18042;SDS011;9146;48.074;11.968;2023-05-23T08:17:17;22.23;;;17.77;;
18042;SDS011;9146;48.074;11.968;2023-05-23T08:19:43;18.23;;;15.57;;
18042;SDS011;9146;48.074;11.968;2023-05-23T08:22:12;20.37;;;16.17;;
18042;SDS011;9146;48.074;11.968;2023-05-23T08:24:39;22.33;;;17.13;;
18042;SDS011;9146;48.074;11.968;2023-05-23T08:27:05;20.00;;;16.13;;
18042;SDS011;9146;48.074;11.968;2023-05-23T08:29:33;20.60;;;17.10;;
18042;SDS011;9146;48.074;11.968;2023-05-23T08:32:01;22.50;;;17.97;;
18042;SDS011;9146;48.074;11.968;2023-05-23T08:34:28;21.33;;;17.97;;
18042;SDS011;9146;48.074;11.968;2023-05-23T08:36:55;21.10;;;16.57;;
18042;SDS011;9146;48.074;11.968;2023-05-23T08:39:23;16.23;;;13.73;;
18042;SDS011;9146;48.074;11.968;2023-05-23T08:41:50;18.50;;;16.00;;
18042;SDS011;9146;48.074;11.968;2023-05-23T08:44:17;22.83;;;15.70;;
18042;SDS011;9146;48.074;11.968;2023-05-23T08:46:45;18.47;;;16.07;;
18042;SDS011;9146;48.074;11.968;2023-05-23T08:49:13;14.77;;;12.73;;
18042;SDS011;9146;48.074;11.968;2023-05-23T08:51:43;18.20;;;15.27;;
18042;SDS011;9146;48.074;11.968;2023-05-23T08:54:12;16.07;;;14.40;;
18042;SDS011;9146;48.074;11.968;2023-05-23T08:56:40;20.57;;;16.03;;
18042;SDS011;9146;48.074;11.968;2023-05-23T08:59:09;22.40;;;16.57;;
18042;SDS011;9146;48.074;11.968;2023-05-23T09:01:38;22.80;;;17.57;;
18042;SDS011;9146;48.074;11.968;2023-05-23T09:04:07;23.50;;;15.93;;
18042;SDS011;9146;48.074;11.968;2023-05-23T09:06:35;21.00;;;16.60;;
18042;SDS011;9146;48.074;11.968;2023-05-23T09:09:02;19.77;;;17.17;;
18042;SDS011;9146;48.074;11.968;2023-05-23T09:11:29;21.00;;;17.13;;
18042;SDS011;9146;48.074;11.968;2023-05-23T09:13:59;19.03;;;16.37;;
18042;SDS011;9146;48.074;11.968;2023-05-23T09:16:30;18.27;;;16.20;;
18042;SDS011;9146;48.074;11.968;2023-05-23T09:18:58;20.10;;;17.50;;
18042;SDS011;9146;48.074;11.968;2023-05-23T09:21:34;19.30;;;15.47;;
18042;SDS011;9146;48.074;11.968;2023-05-23T09:24:01;32.43;;;18.40;;
18042;SDS011;9146;48.074;11.968;2023-05-23T09:26:29;20.50;;;15.57;;
18042;SDS011;9146;48.074;11.968;2023-05-23T09:28:56;17.90;;;16.00;;
18042;SDS011;9146;48.074;11.968;2023-05-23T09:31:26;17.97;;;16.07;;
18042;SDS011;9146;48.074;11.968;2023-05-23T09:33:53;20.80;;;15.77;;
18042;SDS011;9146;48.074;11.968;2023-05-23T09:36:20;21.80;;;15.93;;
18042;SDS011;9146;48.074;11.968;2023-05-23T09:38:47;23.37;;;17.60;;
18042;SDS011;9146;48.074;11.968;2023-05-23T09:41:18;27.83;;;15.40;;
18042;SDS011;9146;48.074;11.968;2023-05-23T09:43:48;19.40;;;15.07;;
18042;SDS011;9146;48.074;11.968;2023-05-23T09:46:17;20.10;;;16.73;;
18042;SDS011;9146;48.074;11.968;2023-05-23T09:48:46;20.70;;;18.20;;
18042;SDS011;9146;48.074;11.968;2023-05-23T09:51:16;21.50;;;17.23;;
18042;SDS011;9146;48.074;11.968;2023-05-23T09:53:44;23.93;;;17.50;;
18042;SDS011;9146;48.074;11.968;2023-05-23T09:56:11;20.40;;;15.83;;
18042;SDS011;9146;48.074;11.968;2023-05-23T09:58:41;19.30;;;17.20;;
18042;SDS011;9146;48.074;11.968;2023-05-23T10:01:10;20.50;;;17.67;;
18042;SDS011;9146;48.074;11.968;2023-05-23T10:03:43;23.73;;;17.63;;
18042;SDS011;9146;48.074;11.968;2023-05-23T10:06:16;18.97;;;16.27;;
18042;SDS011;9146;48.074;11.968;2023-05-23T10:08:49;19.67;;;15.20;;
18042;SDS011;9146;48.074;11.968;2023-05-23T10:14:43;18.87;;;16.67;;
18042;SDS011;9146;48.074;11.968;2023-05-23T10:17:17;23.47;;;18.50;;
18042;SDS011;9146;48.074;11.968;2023-05-23T10:19:47;21.70;;;17.33;;
18042;SDS011;9146;48.074;11.968;2023-05-23T10:22:20;26.07;;;17.30;;
18042;SDS011;9146;48.074;11.968;2023-05-23T10:24:48;19.27;;;16.87;;
18042;SDS011;9146;48.074;11.968;2023-05-23T10:27:15;21.30;;;17.10;;
18042;SDS011;9146;48.074;11.968;2023-05-23T10:29:43;21.23;;;16.97;;
18042;SDS011;9146;48.074;11.968;2023-05-23T10:32:10;19.83;;;16.20;;
18042;SDS011;9146;48.074;11.968;2023-05-23T10:34:39;20.23;;;18.03;;
18042;SDS011;9146;48.074;11.968;2023-05-23T10:37:14;18.67;;;15.50;;
18042;SDS011;9146;48.074;11.968;2023-05-23T10:39:58;24.97;;;17.07;;
18042;SDS011;9146;48.074;11.968;2023-05-23T10:42:35;23.93;;;17.00;;
18042;SDS011;9146;48.074;11.968;2023-05-23T10:45:13;25.60;;;20.00;;
18042;SDS011;9146;48.074;11.968;2023-05-23T10:47:41;21.27;;;15.80;;
18042;SDS011;9146;48.074;11.968;2023-05-23T10:50:10;22.57;;;16.70;;
18042;SDS011;9146;48.074;11.968;2023-05-23T10:52:39;20.23;;;16.57;;
18042;SDS011;9146;48.074;11.968;2023-05-23T10:55:13;18.70;;;16.40;;
18042;SDS011;9146;48.074;11.968;2023-05-23T10:57:42;19.53;;;16.37;;
18042;SDS011;9146;48.074;11.968;2023-05-23T11:00:13;19.73;;;15.40;;
18042;SDS011;9146;48.074;11.968;2023-05-23T11:02:45;21.67;;;15.20;;
18042;SDS011;9146;48.074;11.968;2023-05-23T11:05:20;24.17;;;15.70;;
18042;SDS011;9146;48.074;11.968;2023-05-23T11:08:07;19.03;;;16.33;;
18042;SDS011;9146;48.074;11.968;2023-05-23T11:10:53;19.43;;;16.13;;
18042;SDS011;9146;48.074;11.968;2023-05-23T11:13:21;26.13;;;18.80;;
18042;SDS011;9146;48.074;11.968;2023-05-23T11:15:48;19.97;;;16.90;;
18042;SDS011;9146;48.074;11.968;2023-05-23T11:18:19;20.80;;;15.27;;
18042;SDS011;9146;48.074;11.968;2023-05-23T11:20:48;18.30;;;15.70;;
18042;SDS011;9146;48.074;11.968;2023-05-23T11:23:16;19.13;;;15.00;;
18042;SDS011;9146;48.074;11.968;2023-05-23T11:25:44;20.63;;;15.67;;
18042;SDS011;9146;48.074;11.968;2023-05-23T11:28:15;20.27;;;16.37;;
18042;SDS011;9146;48.074;11.968;2023-05-23T11:30:42;20.43;;;15.03;;
18042;SDS011;9146;48.074;11.968;2023-05-23T11:33:12;19.97;;;15.90;;
18042;SDS011;9146;48.074;11.968;2023-05-23T11:35:40;20.17;;;16.37;;
18042;SDS011;9146;48.074;11.968;2023-05-23T11:38:08;19.73;;;16.33;;
18042;SDS011;9146;48.074;11.968;2023-05-23T11:40:36;20.43;;;16.73;;
18042;SDS011;9146;48.074;11.968;2023-05-23T11:43:05;23.60;;;17.67;;
18042;SDS011;9146;48.074;11.968;2023-05-23T11:45:35;20.87;;;17.17;;
18042;SDS011;9146;48.074;11.968;2023-05-23T11:48:04;20.10;;;17.10;;
18042;SDS011;9146;48.074;11.968;2023-05-23T11:50:32;19.17;;;15.30;;
18042;SDS011;9146;48.074;11.968;2023-05-23T11:52:59;16.53;;;14.77;;
18042;SDS011;9146;48.074;11.968;2023-05-23T11:55:26;18.43;;;15.03;;
18042;SDS011;9146;48.074;11.968;2023-05-23T11:57:54;17.00;;;13.97;;
18042;SDS011;9146;48.074;11.968;2023-05-23T12:00:22;20.60;;;14.77;;
18042;SDS011;9146;48.074;11.968;2023-05-23T12:02:51;19.00;;;16.53;;
18042;SDS011;9146;48.074;11.968;2023-05-23T12:05:18;15.77;;;13.40;;
18042;SDS011;9146;48.074;11.968;2023-05-23T12:07:45;16.30;;;13.70;;
18042;SDS011;9146;48.074;11.968;2023-05-23T12:10:13;18.90;;;14.10;;
18042;SDS011;9146;48.074;11.968;2023-05-23T12:12:41;16.60;;;14.80;;
18042;SDS011;9146;48.074;11.968;2023-05-23T12:15:09;18.43;;;14.80;;
18042;SDS011;9146;48.074;11.968;2023-05-23T12:17:37;17.00;;;15.23;;
18042;SDS011;9146;48.074;11.968;2023-05-23T12:20:10;16.27;;;13.37;;
18042;SDS011;9146;48.074;11.968;2023-05-23T12:22:37;18.50;;;12.57;;
18042;SDS011;9146;48.074;11.968;2023-05-23T12:25:07;14.60;;;11.20;;
18042;SDS011;9146;48.074;11.968;2023-05-23T12:27:34;15.10;;;11.73;;
18042;SDS011;9146;48.074;11.968;2023-05-23T12:30:06;14.73;;;11.80;;
18042;SDS011;9146;48.074;11.968;2023-05-23T12:32:34;13.53;;;11.60;;
18042;SDS011;9146;48.074;11.968;2023-05-23T12:35:04;12.10;;;10.90;;
18042;SDS011;9146;48.074;11.968;2023-05-23T12:37:33;12.87;;;11.57;;
18042;SDS011;9146;48.074;11.968;2023-05-23T12:40:11;14.80;;;12.53;;
18042;SDS011;9146;48.074;11.968;2023-05-23T12:42:51;12.20;;;11.00;;
18042;SDS011;9146;48.074;11.968;2023-05-23T12:45:18;15.63;;;10.77;;
18042;SDS011;9146;48.074;11.968;2023-05-23T12:47:46;13.23;;;11.90;;
18042;SDS011;9146;48.074;11.968;2023-05-23T12:50:13;13.77;;;12.10;;
18042;SDS011;9146;48.074;11.968;2023-05-23T12:52:42;16.53;;;12.07;;
18042;SDS011;9146;48.074;11.968;2023-05-23T12:55:09;12.83;;;11.43;;
18042;SDS011;9146;48.074;11.968;2023-05-23T12:57:38;14.20;;;11.77;;
18042;SDS011;9146;48.074;11.968;2023-05-23T13:00:05;19.00;;;13.70;;
18042;SDS011;9146;48.074;11.968;2023-05-23T13:02:33;15.20;;;10.10;;
18042;SDS011;9146;48.074;11.968;2023-05-23T13:05:00;14.07;;;10.10;;
18042;SDS011;9146;48.074;11.968;2023-05-23T13:07:27;11.47;;;10.30;;
18042;SDS011;9146;48.074;11.968;2023-05-23T13:09:55;15.97;;;9.93;;
18042;SDS011;9146;48.074;11.968;2023-05-23T13:12:22;11.00;;;9.90;;
18042;SDS011;9146;48.074;11.968;2023-05-23T13:14:49;11.40;;;9.50;;
18042;SDS011;9146;48.074;11.968;2023-05-23T13:17:16;11.77;;;10.57;;
18042;SDS011;9146;48.074;11.968;2023-05-23T13:19:43;14.07;;;11.30;;
18042;SDS011;9146;48.074;11.968;2023-05-23T13:22:10;15.70;;;10.73;;
18042;SDS011;9146;48.074;11.968;2023-05-23T13:24:38;12.27;;;11.03;;
18042;SDS011;9146;48.074;11.968;2023-05-23T13:27:09;15.70;;;12.03;;
18042;SDS011;9146;48.074;11.968;2023-05-23T13:29:35;13.40;;;12.10;;
18042;SDS011;9146;48.074;11.968;2023-05-23T13:32:02;15.40;;;11.50;;
18042;SDS011;9146;48.074;11.968;2023-05-23T13:34:29;15.60;;;12.53;;
18042;SDS011;9146;48.074;11.968;2023-05-23T13:36:59;14.50;;;12.57;;
18042;SDS011;9146;48.074;11.968;2023-05-23T13:39:26;14.87;;;13.20;;
18042;SDS011;9146;48.074;11.968;2023-05-23T13:41:52;16.93;;;12.53;;
18042;SDS011;9146;48.074;11.968;2023-05-23T13:44:21;16.17;;;11.63;;
18042;SDS011;9146;48.074;11.968;2023-05-23T13:46:48;13.40;;;12.00;;
18042;SDS011;9146;48.074;11.968;2023-05-23T13:49:15;21.00;;;12.17;;
18042;SDS011;9146;48.074;11.968;2023-05-23T13:51:41;12.80;;;11.40;;
18042;SDS011;9146;48.074;11.968;2023-05-23T13:54:08;14.80;;;11.23;;
18042;SDS011;9146;48.074;11.968;2023-05-23T13:56:35;11.50;;;9.83;;
18042;SDS011;9146;48.074;11.968;2023-05-23T13:59:04;11.93;;;10.43;;
18042;SDS011;9146;48.074;11.968;2023-05-23T14:01:32;15.03;;;12.17;;
18042;SDS011;9146;48.074;11.968;2023-05-23T14:03:59;12.17;;;9.70;;
18042;SDS011;9146;48.074;11.968;2023-05-23T14:06:26;13.40;;;11.10;;
18042;SDS011;9146;48.074;11.968;2023-05-23T14:08:53;12.13;;;10.83;;
18042;SDS011;9146;48.074;11.968;2023-05-23T14:11:20;11.20;;;9.83;;
18042;SDS011;9146;48.074;11.968;2023-05-23T14:13:47;8.80;;;7.90;;
18042;SDS011;9146;48.074;11.968;2023-05-23T14:16:14;9.90;;;7.10;;
18042;SDS011;9146;48.074;11.968;2023-05-23T14:18:42;8.10;;;6.73;;
18042;SDS011;9146;48.074;11.968;2023-05-23T14:21:09;7.23;;;6.53;;
18042;SDS011;9146;48.074;11.968;2023-05-23T14:23:36;6.80;;;6.20;;
18042;SDS011;9146;48.074;11.968;2023-05-23T14:26:03;7.53;;;6.83;;
18042;SDS011;9146;48.074;11.968;2023-05-23T14:28:30;8.93;;;6.70;;
18042;SDS011;9146;48.074;11.968;2023-05-23T14:30:57;8.93;;;6.67;;
18042;SDS011;9146;48.074;11.968;2023-05-23T14:33:24;7.30;;;6.60;;